createdAt,value
2022-10-01T00:23:54.712Z,10
2022-10-01T00:52:59.201Z,10
2022-10-01T01:21:44.404Z,10
2022-10-01T01:50:35.884Z,8
2022-10-01T02:19:39.536Z,8
2022-10-01T02:48:34.197Z,7
2022-10-01T03:17:34.086Z,7
2022-10-01T03:45:55.725Z,6
2022-10-01T04:14:16.889Z,6
2022-10-01T04:42:39.511Z,5
2022-10-01T05:11:25.189Z,5
2022-10-01T05:40:18.722Z,5
2022-10-01T06:09:13.483Z,5
2022-10-01T06:38:12.967Z,4
2022-10-01T07:07:13.046Z,4
2022-10-01T07:36:11.973Z,4
2022-10-01T08:05:09.636Z,5
2022-10-01T08:34:10.184Z,5
2022-10-01T09:03:08.973Z,6
2022-10-01T09:31:27.365Z,4
2022-10-01T09:59:50.131Z,4
2022-10-01T10:28:10.684Z,4
2022-10-01T10:56:34.159Z,4
2022-10-01T11:24:51.923Z,4
2022-10-01T11:53:15.117Z,4
2022-10-01T12:21:41.259Z,4
2022-10-01T12:50:10.302Z,2
2022-10-01T13:18:29.200Z,2
2022-10-01T13:47:24.378Z,1
2022-10-01T14:15:46.817Z,2
2022-10-01T14:44:01.887Z,2
2022-10-01T15:12:23.735Z,2
2022-10-01T15:40:45.283Z,4
2022-10-01T16:09:05.519Z,4
2022-10-01T16:37:25.584Z,4
2022-10-01T17:05:44.539Z,3
2022-10-01T17:34:06.468Z,4
2022-10-01T18:02:41.370Z,3
2022-10-01T18:30:47.511Z,2
2022-10-01T18:59:08.735Z,4
2022-10-01T19:28:06.229Z,4
2022-10-01T19:56:49.807Z,4
2022-10-01T20:25:38.740Z,4
2022-10-01T20:54:25.631Z,4
2022-10-01T21:23:26.509Z,4
2022-10-01T21:52:26.376Z,4
2022-10-01T22:21:21.818Z,4
2022-10-01T22:50:16.053Z,4
2022-10-01T23:19:16.285Z,4
2022-10-01T23:48:04.416Z,4
